Time;durP1;ratioP1;P1;durP2;ratioP2;P2;SDS_P1;SDS_P2;PMS_P1;PMS_P2;Temp;Humidity;BMP_temperature;BMP_pressure;BME280_temperature;BME280_humidity;BME280_pressure;Samples;Min_cycle;Max_cycle;Signal;HPM_P1;HPM_P2
2022/05/21 00:00:28;;;;;;;9.80;6.68;;;14.10;1.00;;;14.25;98.18;98388.25;5060073;27;128723;-74
2022/05/21 00:02:57;;;;;;;10.18;7.25;;;14.00;1.00;;;14.25;98.05;98405.41;5059171;27;129298;-75
2022/05/21 00:05:29;;;;;;;12.15;7.38;;;14.00;1.00;;;14.18;98.16;98399.81;5044785;27;119865;-75
2022/05/21 00:07:58;;;;;;;10.50;6.68;;;13.90;1.00;;;14.11;98.70;98394.22;5058319;27;119905;-77
2022/05/21 00:10:30;;;;;;;10.85;7.18;;;13.80;1.00;;;14.10;98.40;98409.81;5061007;27;130030;-75
2022/05/21 00:13:01;;;;;;;8.98;6.72;;;13.80;1.00;;;14.04;99.09;98403.09;5061013;27;128632;-76
2022/05/21 00:15:33;;;;;;;9.30;7.00;;;13.70;1.00;;;13.99;99.39;98409.63;5061141;27;119840;-75
2022/05/21 00:18:03;;;;;;;11.07;7.05;;;13.70;1.00;;;13.91;99.88;98407.09;5059755;27;119820;-76
2022/05/21 00:20:49;;;;;;;9.93;7.28;;;13.70;1.00;;;13.88;100.00;98410.56;5059066;27;129893;-76
2022/05/21 00:23:24;;;;;;;9.95;6.90;;;13.70;1.00;;;13.79;100.00;98411.56;5059082;27;129263;-78
2022/05/21 00:25:59;;;;;;;10.20;6.43;;;13.60;1.00;;;13.84;99.84;98413.22;5059902;27;121371;-76
2022/05/21 00:28:29;;;;;;;10.40;6.97;;;13.70;1.00;;;13.81;99.86;98411.22;5059158;27;121502;-75
2022/05/21 00:30:58;;;;;;;9.45;6.40;;;13.60;1.00;;;13.82;100.00;98399.13;5060696;27;129510;-77
2022/05/21 00:33:28;;;;;;;8.63;6.63;;;13.60;1.00;;;13.82;99.91;98399.13;5057275;27;130627;-73
2022/05/21 00:35:57;;;;;;;9.65;6.75;;;13.50;1.00;;;13.74;100.00;98398.19;5061022;27;118673;-74
2022/05/21 00:38:26;;;;;;;9.63;6.88;;;13.50;1.00;;;13.72;100.00;98388.81;5059034;27;120143;-76
2022/05/21 00:40:55;;;;;;;9.55;7.65;;;13.40;1.00;;;13.65;100.00;98384.81;5060623;27;130805;-75
2022/05/21 00:43:40;;;;;;;8.70;6.95;;;13.40;1.00;;;13.58;100.00;98378.41;5059220;27;129660;-76
2022/05/21 00:46:12;;;;;;;9.73;7.18;;;13.30;1.00;;;13.55;100.00;98374.47;5058755;27;120016;-76
2022/05/21 00:48:41;;;;;;;10.43;7.50;;;13.30;1.00;;;13.48;100.00;98374.34;5058923;27;119317;-75
2022/05/21 00:51:19;;;;;;;11.02;7.72;;;13.30;1.00;;;13.47;100.00;98378.19;5042092;27;128764;-73
2022/05/21 00:53:49;;;;;;;10.30;7.40;;;13.30;1.00;;;13.45;100.00;98364.94;5057226;27;129824;-73
2022/05/21 00:56:19;;;;;;;10.00;8.40;;;13.20;1.00;;;13.45;100.00;98369.59;5059257;27;120682;-75
2022/05/21 01:01:42;;;;;;;9.48;7.43;;;13.20;1.00;;;13.38;100.00;98370.22;5058529;27;130479;-75
2022/05/21 01:04:11;;;;;;;11.10;7.82;;;13.20;1.00;;;13.33;100.00;98372.44;5058248;27;130063;-76
2022/05/21 01:06:40;;;;;;;11.50;7.78;;;13.10;1.00;;;13.27;100.00;98363.72;5058410;27;119894;-77
2022/05/21 01:09:09;;;;;;;11.73;8.27;;;13.10;1.00;;;13.27;100.00;98364.50;5056863;27;119361;-75
2022/05/21 01:11:39;;;;;;;11.13;8.30;;;13.00;1.00;;;13.20;100.00;98358.94;5057998;27;129912;-75
2022/05/21 01:14:12;;;;;;;10.52;8.82;;;12.90;1.00;;;13.18;100.00;98366.66;5058037;27;129404;-76
2022/05/21 01:16:42;;;;;;;11.07;8.13;;;12.90;4.30;;;13.11;100.00;98361.06;5057358;27;122489;-75
2022/05/21 01:19:11;;;;;;;10.45;8.35;;;12.90;14.40;;;13.05;100.00;98352.38;5058569;27;121861;-75
2022/05/21 01:21:40;;;;;;;12.15;9.20;;;12.80;25.80;;;13.06;100.00;98356.69;5060129;27;130410;-75
2022/05/21 01:24:12;;;;;;;12.27;8.43;;;12.80;60.70;;;12.98;100.00;98362.31;5058476;27;130714;-76
2022/05/21 01:26:41;;;;;;;14.43;9.38;;;12.70;86.20;;;12.95;100.00;98361.91;5058457;27;120042;-75
2022/05/21 01:29:17;;;;;;;10.50;9.00;;;12.70;99.90;;;12.92;100.00;98362.59;5052150;27;119710;-76
2022/05/21 01:31:51;;;;;;;12.20;9.70;;;12.60;99.90;;;12.88;100.00;98361.72;5058056;27;130302;-75
2022/05/21 01:34:20;;;;;;;11.38;9.13;;;12.60;99.90;;;12.90;100.00;98361.38;5058073;27;130114;-73
2022/05/21 01:36:49;;;;;;;12.25;9.25;;;12.70;99.90;;;12.85;100.00;98365.16;5058331;27;119865;-75
2022/05/21 01:39:19;;;;;;;13.52;9.95;;;12.70;99.90;;;12.82;100.00;98365.09;5060288;27;119526;-75
2022/05/21 01:41:48;;;;;;;14.60;9.88;;;12.60;99.90;;;12.81;100.00;98371.66;5056536;27;130041;-75
2022/05/21 01:47:03;;;;;;;12.63;8.90;;;12.70;99.90;;;12.81;100.00;98353.41;5057906;27;119645;-76
2022/05/21 01:49:32;;;;;;;13.00;9.40;;;12.70;99.90;;;12.84;100.00;98358.16;5060219;27;119963;-76
2022/05/21 01:52:01;;;;;;;11.68;8.25;;;12.60;99.90;;;12.85;100.00;98361.66;5042387;27;129920;-75
2022/05/21 01:54:31;;;;;;;11.80;8.85;;;12.70;99.90;;;12.81;100.00;98356.13;5057641;27;130812;-76
2022/05/21 01:57:00;;;;;;;13.25;9.50;;;12.60;99.70;;;12.77;100.00;98347.88;5059473;27;119236;-77
2022/05/21 01:59:29;;;;;;;12.40;9.30;;;12.50;99.90;;;12.80;100.00;98351.81;5058318;27;119837;-75
2022/05/21 02:01:57;;;;;;;10.77;8.88;;;12.50;99.90;;;12.75;100.00;98344.72;5059375;27;128864;-76
2022/05/21 02:04:26;;;;;;;15.27;9.93;;;12.50;99.90;;;12.72;100.00;98344.63;5057364;27;129978;-77
2022/05/21 02:06:54;;;;;;;13.20;9.88;;;12.50;99.90;;;12.74;100.00;98351.28;5056458;27;121977;-75
2022/05/21 02:09:23;;;;;;;11.70;9.00;;;12.50;99.90;;;12.75;100.00;98349.38;5058292;27;122331;-76
2022/05/21 02:11:53;;;;;;;14.02;9.07;;;12.40;99.90;;;12.76;100.00;98345.50;5056471;27;131673;-77
2022/05/21 02:14:21;;;;;;;12.35;9.25;;;12.40;99.90;;;12.79;100.00;98354.91;5057519;27;130175;-75
2022/05/21 02:16:50;;;;;;;13.25;9.88;;;12.40;99.90;;;12.81;100.00;98360.75;5057827;27;119685;-76
2022/05/21 02:19:19;;;;;;;11.55;8.77;;;12.40;99.90;;;12.80;100.00;98357.25;5057926;27;119086;-75
2022/05/21 02:21:48;;;;;;;16.40;9.05;;;12.40;99.90;;;12.79;100.00;98349.44;5059918;27;128904;-75
2022/05/21 02:24:16;;;;;;;13.35;9.27;;;12.40;99.90;;;12.82;100.00;98362.34;5061304;27;130708;-77
2022/05/21 02:26:45;;;;;;;12.27;10.13;;;12.40;99.90;;;12.85;100.00;98359.72;5061024;27;119613;-74
2022/05/21 02:29:15;;;;;;;15.48;9.50;;;12.40;99.90;;;12.87;100.00;98354.72;5061131;27;119766;-76
2022/05/21 02:31:43;;;;;;;15.82;10.18;;;12.40;99.90;;;12.91;100.00;98352.06;5059794;27;130169;-75
2022/05/21 02:34:12;;;;;;;13.43;9.50;;;12.40;99.90;;;13.06;100.00;98342.28;5060515;27;129299;-76
2022/05/21 02:39:28;;;;;;;10.73;9.00;;;12.60;88.60;;;13.06;100.00;98312.34;5060911;27;119641;-74
2022/05/21 02:41:58;;;;;;;13.77;8.90;;;12.50;66.40;;;13.09;100.00;98314.34;5060394;27;129803;-75
2022/05/21 02:44:29;;;;;;;12.45;9.00;;;12.50;79.30;;;13.33;100.00;98313.28;5060277;27;129404;-76
2022/05/21 02:46:58;;;;;;;10.63;8.55;;;12.60;91.60;;;13.52;100.00;98309.75;5045609;27;119374;-75
2022/05/21 02:49:26;;;;;;;11.45;8.15;;;12.60;37.60;;;13.65;99.12;98297.56;5060891;27;119979;-74
2022/05/21 02:51:55;;;;;;;11.10;8.20;;;12.70;24.90;;;13.66;98.80;98299.16;5062163;27;129836;-74
2022/05/21 02:54:24;;;;;;;10.40;8.30;;;12.70;2.40;;;13.77;97.87;98298.53;5062523;27;128378;-78
2022/05/21 02:56:53;;;;;;;12.10;8.00;;;12.70;1.00;;;13.76;97.66;98302.41;5060624;27;122460;-77
2022/05/21 02:59:21;;;;;;;10.52;8.00;;;12.70;1.00;;;13.79;97.29;98304.41;5059007;27;121779;-76
2022/05/21 03:01:51;;;;;;;11.20;8.15;;;12.60;1.00;;;13.80;97.37;98292.38;5063501;27;130390;-75
2022/05/21 03:04:20;;;;;;;10.88;8.30;;;12.70;1.00;;;13.74;97.27;98288.38;5063679;27;130698;-77
2022/05/21 03:06:48;;;;;;;12.68;8.52;;;12.60;1.00;;;13.62;97.74;98281.16;5060540;27;119836;-79
2022/05/21 03:12:03;;;;;;;13.07;9.18;;;12.50;1.00;;;13.56;98.39;98277.16;5060143;27;130091;-75
2022/05/21 03:14:32;;;;;;;10.45;8.60;;;12.50;24.20;;;13.83;98.56;98280.75;5060130;27;130131;-75
2022/05/21 03:17:01;;;;;;;10.88;7.85;;;12.60;35.70;;;14.01;96.56;98264.69;5062434;27;118542;-76
2022/05/21 03:19:32;;;;;;;11.05;8.70;;;12.70;1.00;;;14.02;95.39;98268.97;5060245;27;119858;-74
2022/05/21 03:22:01;;;;;;;10.27;8.15;;;12.60;1.00;;;13.96;95.51;98265.78;5058852;27;130380;-75
2022/05/21 03:24:30;;;;;;;11.13;8.30;;;12.50;1.00;;;14.10;94.94;98267.97;5059926;27;130635;-76
2022/05/21 03:26:58;;;;;;;9.57;7.70;;;12.60;1.00;;;14.24;94.43;98264.66;5062192;27;119436;-75
2022/05/21 03:29:27;;;;;;;9.77;7.32;;;12.70;1.00;;;14.50;92.96;98263.88;5060561;27;119560;-75
2022/05/21 03:31:55;;;;;;;9.93;8.05;;;12.90;1.00;;;14.64;91.99;98260.59;5061334;27;129399;-76
2022/05/21 03:34:26;;;;;;;9.88;8.20;;;12.90;1.00;;;14.76;90.95;98265.06;5060215;27;129419;-78
2022/05/21 03:36:54;;;;;;;9.40;7.78;;;13.00;1.00;;;14.64;91.53;98263.34;5060495;27;119606;-75
2022/05/21 03:39:23;;;;;;;11.55;7.97;;;12.80;1.00;;;14.66;91.13;98266.50;5062496;27;118830;-76
2022/05/21 03:41:51;;;;;;;12.70;7.70;;;12.90;1.00;;;14.86;89.82;98274.56;5061648;27;129744;-75
2022/05/21 03:44:21;;;;;;;10.98;8.32;;;12.90;1.00;;;14.89;89.20;98280.06;5058280;27;130266;-74
2022/05/21 03:46:49;;;;;;;11.75;8.25;;;12.80;1.00;;;14.73;89.97;98271.25;5058778;27;122624;-76
2022/05/21 03:49:18;;;;;;;11.40;8.77;;;12.70;1.00;;;14.51;91.00;98278.34;5062059;27;122033;-75
2022/05/21 03:51:49;;;;;;;12.38;9.63;;;12.60;1.00;;;14.38;92.39;98278.53;5059815;27;130562;-79
2022/05/21 03:54:18;;;;;;;14.57;9.70;;;12.80;1.00;;;14.18;93.24;98274.31;5058251;27;129554;-75
2022/05/21 03:56:46;;;;;;;11.77;9.52;;;12.70;1.00;;;14.07;94.39;98281.53;5060640;27;120183;-76
2022/05/21 03:59:15;;;;;;;14.95;9.63;;;12.70;1.00;;;14.07;94.62;98274.16;5060069;27;120162;-73
2022/05/21 04:01:45;;;;;;;14.30;9.68;;;12.80;1.00;;;13.89;94.94;98279.28;5059389;27;129947;-74
2022/05/21 04:04:13;;;;;;;13.25;10.23;;;12.60;1.00;;;13.78;95.47;98286.50;5058489;27;129522;-76
2022/05/21 04:06:43;;;;;;;15.20;10.25;;;12.50;1.00;;;13.60;96.69;98284.25;5059638;27;119941;-74
2022/05/21 04:09:13;;;;;;;13.98;10.40;;;12.50;1.00;;;13.48;97.59;98282.44;5059792;27;119971;-76
2022/05/21 04:11:41;;;;;;;14.00;10.45;;;12.60;1.00;;;13.39;97.99;98278.38;5058042;27;131075;-75
2022/05/21 04:14:12;;;;;;;14.30;10.77;;;12.50;1.00;;;13.35;98.16;98288.41;5059137;27;130376;-74
2022/05/21 04:16:42;;;;;;;14.23;11.02;;;12.40;1.00;;;13.34;98.63;98281.38;5061418;27;118663;-77
2022/05/21 04:19:10;;;;;;;16.73;10.90;;;12.40;3.90;;;13.39;98.31;98281.09;5059394;27;119874;-75
2022/05/21 04:21:39;;;;;;;16.38;10.85;;;12.50;1.00;;;13.39;98.59;98289.28;5059201;27;131263;-75
2022/05/21 04:24:07;;;;;;;13.90;10.73;;;12.50;1.00;;;13.43;98.67;98284.66;5059137;27;129573;-76
2022/05/21 04:26:37;;;;;;;15.98;12.07;;;12.50;1.00;;;13.53;97.88;98284.09;5059689;27;120082;-74
2022/05/21 04:29:06;;;;;;;14.77;11.23;;;12.60;1.00;;;13.56;97.75;98277.16;5059691;27;119746;-75
2022/05/21 04:31:35;;;;;;;15.00;10.60;;;12.60;1.00;;;13.59;97.34;98269.03;5058824;27;129672;-78
2022/05/21 04:34:03;;;;;;;12.43;10.45;;;12.50;1.00;;;13.71;96.81;98267.28;5058900;27;129665;-73
2022/05/21 04:36:34;;;;;;;14.68;10.63;;;12.60;1.00;;;13.85;96.34;98262.06;5057622;27;122596;-75
2022/05/21 04:39:03;;;;;;;15.65;10.65;;;12.80;1.00;;;13.94;95.19;98262.63;5059076;27;122359;-74
2022/05/21 04:41:32;;;;;;;13.20;10.48;;;12.80;1.00;;;14.02;93.96;98261.59;5058515;27;129914;-73
2022/05/21 04:44:04;;;;;;;13.10;9.93;;;12.70;1.00;;;14.07;93.82;98257.78;5059905;27;129162;-73
2022/05/21 04:46:33;;;;;;;13.55;10.18;;;12.80;1.00;;;14.18;93.34;98247.03;5060882;27;119033;-76
2022/05/21 04:49:02;;;;;;;16.75;9.90;;;12.90;1.00;;;14.34;92.31;98239.47;5058843;27;120039;-74
2022/05/21 04:51:30;;;;;;;15.98;10.88;;;12.90;1.00;;;14.45;92.03;98227.94;5043603;27;128880;-76
2022/05/21 04:53:58;;;;;;;13.50;9.45;;;13.00;1.00;;;14.70;90.92;98225.59;5058908;27;130699;-76
2022/05/21 04:56:27;;;;;;;13.77;9.32;;;13.30;1.00;;;14.90;89.49;98228.97;5059220;27;120701;-76
2022/05/21 04:58:56;;;;;;;13.27;10.07;;;13.40;1.00;;;14.73;89.35;98228.34;5060833;27;118690;-74
2022/05/21 05:01:26;;;;;;;14.45;10.35;;;13.40;1.00;;;14.60;89.86;98224.28;5059835;27;129680;-73
2022/05/21 05:03:55;;;;;;;12.85;10.10;;;13.40;1.00;;;14.33;90.67;98226.97;5058610;27;129887;-75
2022/05/21 05:06:23;;;;;;;14.93;10.52;;;13.30;1.00;;;14.70;89.15;98220.91;5058789;27;120352;-76
2022/05/21 05:08:52;;;;;;;13.98;10.38;;;13.40;1.00;;;15.04;87.91;98222.88;5058639;27;119552;-74
2022/05/21 05:11:20;;;;;;;13.43;10.35;;;13.60;1.00;;;15.23;86.06;98216.47;5058154;27;130998;-72
2022/05/21 05:13:48;;;;;;;15.07;10.88;;;13.50;1.00;;;15.29;85.52;98231.38;5058369;27;129788;-76
2022/05/21 05:16:17;;;;;;;13.60;10.90;;;13.20;1.00;;;15.04;86.05;98226.41;5058495;27;120294;-73
2022/05/21 05:18:47;;;;;;;14.50;10.27;;;13.40;1.00;;;15.13;86.60;98222.59;5059246;27;119505;-76
2022/05/21 05:21:16;;;;;;;14.02;9.90;;;13.50;1.00;;;15.21;86.48;98229.72;5058079;27;130222;-76
2022/05/21 05:23:44;;;;;;;16.02;11.00;;;13.60;1.00;;;15.35;85.70;98224.41;5058135;27;129681;-78
2022/05/21 05:26:12;;;;;;;15.30;10.25;;;13.60;1.00;;;15.26;85.57;98229.38;5057086;27;123222;-77
2022/05/21 05:28:43;;;;;;;12.38;10.20;;;13.70;1.00;;;15.14;85.36;98215.97;5058701;27;122575;-76
2022/05/21 05:31:12;;;;;;;13.20;10.40;;;13.80;1.00;;;15.19;84.54;98210.16;5056831;27;131420;-76
2022/05/21 05:33:41;;;;;;;14.30;10.20;;;13.60;1.00;;;15.16;85.67;98205.44;5058022;27;129727;-77
2022/05/21 05:36:10;;;;;;;11.98;9.55;;;13.80;1.00;;;14.96;86.56;98207.56;5058714;27;119130;-76
2022/05/21 05:38:39;;;;;;;14.75;9.23;;;13.70;1.00;;;14.88;86.74;98210.22;5060348;27;117982;-73
2022/05/21 05:41:10;;;;;;;13.65;10.48;;;13.70;1.00;;;15.33;85.15;98199.38;5049497;27;129907;-77
2022/05/21 05:43:38;;;;;;;12.65;9.60;;;13.90;1.00;;;15.59;83.14;98208.63;5058111;27;129534;-77
2022/05/21 05:46:06;;;;;;;13.30;10.07;;;13.90;1.00;;;15.68;82.62;98197.38;5058049;27;120484;-75
2022/05/21 05:48:35;;;;;;;12.45;10.30;;;13.80;1.00;;;15.22;84.20;98193.03;5058111;27;119972;-76
2022/05/21 05:51:04;;;;;;;13.77;10.10;;;13.70;1.00;;;15.17;84.83;98193.38;5056441;27;130110;-75
2022/05/21 05:53:34;;;;;;;13.02;9.98;;;13.80;1.00;;;15.37;83.71;98193.97;5057954;27;129817;-77
2022/05/21 05:56:02;;;;;;;12.95;10.20;;;13.70;1.00;;;15.06;85.12;98191.28;5059850;27;120760;-80
2022/05/21 06:01:16;;;;;;;11.93;9.40;;;13.70;1.00;;;15.36;84.78;98184.97;5061067;27;130144;-75
2022/05/21 06:03:44;;;;;;;11.82;9.13;;;14.00;1.00;;;15.75;83.63;98181.81;5043794;27;130389;-78
2022/05/21 06:06:14;;;;;;;12.85;9.38;;;14.40;1.00;;;16.21;80.07;98190.78;5040836;27;120194;-76
2022/05/21 06:08:45;;;;;;;11.82;9.00;;;14.60;1.00;;;16.48;78.17;98189.38;5051183;27;119593;-75
2022/05/21 06:11:14;;;;;;;14.30;8.90;;;14.40;1.00;;;16.71;77.60;98177.38;5060160;27;130213;-77
2022/05/21 06:13:42;;;;;;;12.52;8.80;;;14.70;1.00;;;16.75;76.06;98186.41;5060276;27;129931;-78
2022/05/21 06:16:11;;;;;;;11.77;9.40;;;14.20;1.00;;;16.93;75.54;98180.22;5061367;27;122060;-75
2022/05/21 06:18:39;;;;;;;12.10;8.63;;;14.10;1.00;;;16.87;76.55;98169.63;5060332;27;122420;-77
2022/05/21 06:21:09;;;;;;;11.57;8.35;;;14.30;1.00;;;17.03;76.14;98184.94;5048824;27;129763;-77
2022/05/21 06:23:38;;;;;;;12.20;9.30;;;14.60;1.00;;;17.37;74.10;98184.66;5040074;27;129638;-78
2022/05/21 06:26:09;;;;;;;12.88;9.35;;;14.60;1.00;;;17.53;73.78;98182.31;5040090;27;119885;-78
2022/05/21 06:28:38;;;;;;;11.32;8.57;;;14.70;1.00;;;17.71;72.42;98189.78;5038828;27;119870;-76
2022/05/21 06:31:06;;;;;;;12.07;8.68;;;14.60;1.00;;;18.00;71.08;98176.88;5040879;27;129795;-78
2022/05/21 06:33:34;;;;;;;10.93;7.93;;;15.00;1.00;;;18.05;70.43;98186.69;5040206;27;129992;-76
2022/05/21 06:36:08;;;;;;;10.98;8.10;;;15.30;1.00;;;18.01;70.85;98181.16;5040194;27;120564;-76
2022/05/21 06:38:38;;;;;;;12.65;8.43;;;15.20;1.00;;;17.90;71.37;98170.22;5041991;27;118873;-75
2022/05/21 06:41:09;;;;;;;11.55;8.65;;;14.90;1.00;;;17.95;70.81;98172.56;5037145;27;130183;-78
2022/05/21 06:43:38;;;;;;;11.18;8.20;;;15.00;1.00;;;18.31;69.53;98163.50;5040149;27;129579;-76
2022/05/21 06:46:07;;;;;;;12.50;7.53;;;15.20;1.00;;;18.71;69.17;98155.91;5040664;27;119576;-75
2022/05/21 06:48:35;;;;;;;11.23;8.38;;;15.90;1.00;;;18.85;67.88;98158.66;5040961;27;120125;-75
2022/05/21 06:51:05;;;;;;;11.23;8.32;;;16.10;1.00;;;18.75;67.50;98153.16;5040037;27;130642;-76
2022/05/21 06:53:35;;;;;;;10.15;8.07;;;15.30;1.00;;;18.81;67.38;98144.09;5040164;27;129871;-76
2022/05/21 06:56:09;;;;;;;10.40;7.40;;;15.70;1.00;;;18.95;66.15;98143.28;5039821;27;119292;-76
2022/05/21 06:58:39;;;;;;;10.93;8.27;;;15.90;1.00;;;19.02;65.96;98142.44;5040772;27;119882;-75
2022/05/21 07:01:08;;;;;;;15.38;8.48;;;15.60;1.00;;;18.89;66.44;98139.38;5025097;27;129158;-78
2022/05/21 07:03:37;;;;;;;15.82;8.95;;;15.40;1.00;;;19.23;65.48;98147.03;5040452;27;129529;-77
2022/05/21 07:08:52;;;;;;;12.93;9.40;;;16.20;1.00;;;20.16;60.80;98140.00;5042135;27;121309;-75
2022/05/21 07:11:23;;;;;;;12.43;8.77;;;15.90;1.00;;;19.92;61.97;98136.31;5040281;27;129797;-78
2022/05/21 07:13:51;;;;;;;11.43;8.25;;;15.50;1.00;;;19.62;62.62;98134.97;5040738;27;129368;-77
2022/05/21 07:16:20;;;;;;;12.05;9.02;;;15.40;1.00;;;20.09;62.16;98129.84;5059844;27;119987;-74
2022/05/21 07:18:48;;;;;;;11.23;8.95;;;15.90;1.00;;;19.83;63.53;98122.25;5038872;27;120086;-78
2022/05/21 07:21:20;;;;;;;10.50;8.23;;;15.90;1.00;;;19.91;62.97;98118.22;5040984;27;130705;-78
2022/05/21 07:23:49;;;;;;;10.68;8.32;;;16.00;1.00;;;20.23;61.65;98122.66;5040226;27;129452;-76
2022/05/21 07:26:19;;;;;;;11.52;8.75;;;16.70;1.00;;;20.36;60.59;98126.44;5041313;27;119812;-76
2022/05/21 07:28:48;;;;;;;10.00;8.30;;;16.30;1.00;;;20.27;59.40;98123.38;5039871;27;119553;-79
2022/05/21 07:31:17;;;;;;;10.68;8.13;;;16.30;1.00;;;20.11;60.07;98126.69;5039031;27;130891;-76
2022/05/21 07:33:46;;;;;;;10.70;8.27;;;16.10;1.00;;;20.18;60.20;98112.06;5040200;27;129502;-77
2022/05/21 07:36:15;;;;;;;10.85;8.63;;;16.50;1.00;;;20.62;59.70;98110.38;5040412;27;120334;-77
2022/05/21 07:38:43;;;;;;;11.40;8.27;;;17.00;1.00;;;20.63;58.83;98106.44;5040131;27;119671;-76
2022/05/21 07:41:12;;;;;;;9.85;7.20;;;16.60;1.00;;;20.34;59.64;98101.28;5039687;27;130157;-78
2022/05/21 07:43:40;;;;;;;9.88;6.85;;;16.70;1.00;;;20.48;58.43;98094.81;5039410;27;130582;-76
2022/05/21 07:46:10;;;;;;;10.07;8.20;;;16.80;1.00;;;20.61;57.03;98081.25;5040366;27;120584;-78
2022/05/21 07:48:39;;;;;;;10.98;7.38;;;16.70;1.00;;;20.48;57.27;98095.59;5042264;27;119747;-76
2022/05/21 07:51:07;;;;;;;11.57;7.22;;;16.00;1.00;;;20.17;59.48;98088.47;5039502;27;129812;-78
2022/05/21 07:53:39;;;;;;;9.55;7.10;;;16.10;1.00;;;20.53;58.96;98090.81;5039655;27;129666;-77
2022/05/21 07:56:11;;;;;;;11.65;7.82;;;16.80;1.00;;;20.91;57.24;98071.44;5038874;27;122794;-77
2022/05/21 07:58:39;;;;;;;9.73;6.65;;;17.20;1.00;;;21.03;57.40;98079.13;5039866;27;121724;-77
2022/05/21 08:01:11;;;;;;;9.73;6.93;;;17.70;99.90;;;20.88;57.04;98077.78;5039462;27;130015;-76
2022/05/21 08:03:40;;;;;;;10.20;6.68;;;17.60;99.90;;;20.52;57.36;98072.72;5041367;27;129655;-77
2022/05/21 08:06:08;;;;;;;9.52;7.03;;;17.40;99.90;;;20.30;58.27;98070.22;5041709;27;119172;-79
2022/05/21 08:08:37;;;;;;;8.98;6.72;;;16.70;1.00;;;20.12;58.96;98067.69;5039830;27;119085;-76
2022/05/21 08:11:05;;;;;;;8.77;6.00;;;16.80;1.00;;;20.15;58.78;98060.56;5041387;27;128396;-80
2022/05/21 08:13:34;;;;;;;10.43;6.72;;;16.30;1.00;;;20.24;57.38;98056.13;5038260;27;130126;-77
2022/05/21 08:16:03;;;;;;;13.35;6.35;;;16.00;1.00;;;20.27;57.26;98051.75;5039638;27;120110;-77
2022/05/21 08:18:33;;;;;;;9.27;6.65;;;16.50;1.00;;;20.68;56.41;98050.88;5055094;27;119205;-80
2022/05/21 08:21:01;;;;;;;8.68;6.40;;;16.80;99.90;;;21.01;56.49;98049.22;5038010;27;130315;-76
2022/05/21 08:29:01;;;;;;;8.98;6.80;;;17.60;99.90;;;21.31;53.73;98033.00;5039309;27;120512;-75
2022/05/21 08:31:30;;;;;;;8.38;6.05;;;18.00;99.90;;;20.89;55.87;98035.25;5040744;27;130269;-75
2022/05/21 08:34:01;;;;;;;9.15;6.55;;;18.10;99.90;;;20.91;55.61;98027.31;5057693;27;128756;-75
2022/05/21 08:36:29;;;;;;;8.48;6.22;;;18.10;99.90;;;20.52;57.00;98029.44;5039060;27;119730;-76
2022/05/21 08:38:58;;;;;;;8.05;6.30;;;17.80;99.90;;;20.51;56.38;98027.84;5038025;27;119749;-77
2022/05/21 08:41:29;;;;;;;8.77;6.25;;;17.20;99.90;;;20.66;55.52;98028.47;5038437;27;129665;-77
2022/05/21 08:44:04;;;;;;;11.25;6.63;;;17.30;99.90;;;20.80;55.76;98022.75;5037321;27;130393;-77
2022/05/21 08:46:47;;;;;;;8.40;6.32;;;17.20;99.90;;;20.46;56.42;98031.84;5039557;27;121503;-78
2022/05/21 08:49:29;;;;;;;8.52;6.35;;;16.60;99.90;;;20.42;55.66;98022.06;5037612;27;122055;-76
2022/05/21 08:52:04;;;;;;;7.65;6.03;;;16.50;99.90;;;20.56;55.99;98013.59;5038587;27;129679;-76
2022/05/21 08:54:35;;;;;;;;;;;16.70;99.90;;;20.45;56.45;98024.00;5041757;27;129887;-77
2022/05/21 08:57:05;;;;;;;10.98;6.95;;;17.00;99.90;;;20.99;55.40;98012.25;5040208;27;119849;-78
2022/05/21 08:59:44;;;;;;;8.15;6.30;;;17.50;99.90;;;21.46;55.04;98017.78;5041802;27;102765;-78
2022/05/21 09:02:17;;;;;;;9.70;7.05;;;18.20;99.90;;;21.39;54.63;98006.84;5037225;27;129464;-77
2022/05/21 09:04:48;;;;;;;9.07;6.60;;;17.60;99.90;;;21.36;54.39;98008.47;5038645;27;129348;-76
2022/05/21 09:07:21;;;;;;;9.45;6.78;;;17.10;99.90;;;21.30;54.52;98009.38;5038524;27;119538;-76
2022/05/21 09:10:12;;;;;;;9.98;7.13;;;17.30;99.90;;;21.33;53.00;98011.28;5038571;27;119417;-76
2022/05/21 09:12:52;;;;;;;10.35;7.03;;;17.20;99.90;;;21.60;53.81;98007.69;5037407;27;130663;-81
2022/05/21 09:18:14;;;;;;;9.57;6.82;;;18.50;99.90;;;21.75;52.29;97997.94;5038646;27;119492;-76
2022/05/21 09:20:54;;;;;;;9.23;6.53;;;17.60;99.90;;;21.76;51.74;97996.00;5038441;27;119993;-77
2022/05/21 09:23:22;;;;;;;8.45;6.30;;;17.50;99.90;;;21.47;52.24;97986.22;5038024;27;130931;-76
2022/05/21 09:26:07;;;;;;;8.77;6.25;;;17.80;99.90;;;21.26;53.91;97978.31;5038439;27;130218;-78
2022/05/21 09:28:38;;;;;;;9.57;6.82;;;18.20;99.90;;;21.14;54.74;97977.69;5038609;27;120573;-77
2022/05/21 09:31:09;;;;;;;10.40;6.88;;;18.50;99.90;;;21.51;54.87;97981.44;5040135;27;119420;-78
2022/05/21 09:33:41;;;;;;;8.48;6.65;;;18.70;99.90;;;21.40;53.20;97975.31;5043470;27;129175;-76
2022/05/21 09:36:18;;;;;;;9.48;6.75;;;18.60;99.90;;;21.33;53.63;97964.38;5041616;27;130157;-76
2022/05/21 09:38:55;;;;;;;9.95;6.57;;;18.60;99.90;;;21.07;54.38;97963.28;5040913;27;122253;-76
2022/05/21 09:41:27;;;;;;;11.73;9.45;;;18.30;99.90;;;20.90;56.67;97967.88;5041779;27;122673;-77
2022/05/21 09:46:48;;;;;;;8.77;7.25;;;18.10;99.90;;;20.85;55.18;97968.34;5041552;27;130241;-78
2022/05/21 09:49:25;;;;;;;10.23;6.30;;;17.30;99.90;;;20.90;56.20;97965.13;5041986;27;120162;-78
2022/05/21 09:51:58;;;;;;;9.43;7.07;;;17.80;99.90;;;20.58;55.84;97960.84;5041707;27;119548;-77
2022/05/21 09:54:30;;;;;;;9.90;7.30;;;17.80;99.90;;;19.71;58.32;97953.66;5041481;27;129416;-76
2022/05/21 09:56:59;;;;;;;8.85;7.15;;;17.30;99.90;;;19.42;60.14;97952.41;5043181;27;129252;-78
2022/05/21 09:59:32;;;;;;;10.88;7.93;;;17.30;99.90;;;19.64;59.40;97956.47;5041643;27;119745;-77
2022/05/21 10:02:15;;;;;;;11.35;7.07;;;17.40;99.90;;;19.95;59.07;97956.56;5041656;27;120100;-76
2022/05/21 10:04:51;;;;;;;9.25;6.90;;;17.50;99.90;;;20.02;58.79;97956.47;5041880;27;129699;-77
2022/05/21 10:13:15;;;;;;;12.05;7.97;;;17.90;99.90;;;20.54;56.47;97938.09;5041101;27;119537;-79
2022/05/21 10:15:50;;;;;;;11.23;7.85;;;17.60;99.90;;;20.77;55.85;97940.91;5041186;27;130456;-76
2022/05/21 10:18:35;;;;;;;9.57;7.88;;;17.50;99.90;;;20.89;55.35;97941.50;5040707;27;130150;-78
2022/05/21 10:21:11;;;;;;;8.65;6.40;;;17.20;99.90;;;20.92;54.86;97946.19;5043273;27;118606;-76
2022/05/21 10:23:46;;;;;;;9.38;6.82;;;17.40;99.90;;;21.13;53.91;97943.06;5041510;27;120053;-79
2022/05/21 10:26:39;;;;;;;8.85;6.60;;;17.50;99.90;;;21.23;53.91;97943.28;5040791;27;130041;-78
2022/05/21 10:29:46;;;;;;;8.80;6.22;;;18.10;99.90;;;20.66;54.72;97945.78;5040635;27;132201;-78
2022/05/21 10:32:25;;;;;;;8.83;6.40;;;18.20;99.90;;;20.68;56.01;97943.41;5039953;27;122039;-77
2022/05/21 10:35:10;;;;;;;8.73;6.47;;;17.80;99.90;;;20.53;56.33;97942.03;5040960;27;121919;-77
2022/05/21 10:38:01;;;;;;;9.05;7.32;;;17.90;99.90;;;20.31;56.51;97941.56;5059354;27;129023;-76
2022/05/21 10:40:40;;;;;;;8.82;6.47;;;17.80;99.90;;;20.11;57.67;97937.47;5041906;27;130122;-77
2022/05/21 10:43:34;;;;;;;8.77;6.30;;;17.90;99.90;;;20.17;57.68;97942.53;5041165;27;118960;-75
2022/05/21 10:46:15;;;;;;;8.18;6.25;;;18.10;99.90;;;20.00;58.64;97941.56;5041496;27;119306;-76
2022/05/21 10:49:18;;;;;;;10.50;6.88;;;17.90;99.90;;;19.76;59.70;97930.41;5057985;27;130915;-77
2022/05/21 10:51:58;;;;;;;10.35;8.05;;;17.80;99.90;;;19.10;62.00;97935.00;5060375;27;129882;-73
2022/05/21 10:54:54;;;;;;;9.20;6.95;;;17.30;99.90;;;18.64;64.26;97934.19;5060161;27;119637;-78
2022/05/21 10:57:40;;;;;;;10.60;7.50;;;17.10;99.90;;;18.43;66.54;97935.13;5052807;27;118749;-75
2022/05/21 11:00:28;;;;;;;11.67;8.20;;;17.10;1.00;;;18.16;66.48;97934.88;5037329;27;131101;-77